Time;durP1;ratioP1;P1;durP2;ratioP2;P2;SDS_P1;SDS_P2;PMS_P1;PMS_P2;Temp;Humidity;BMP_temperature;BMP_pressure;BME280_temperature;BME280_humidity;BME280_pressure;Samples;Min_cycle;Max_cycle;Signal;HPM_P1;HPM_P2
2022/02/09 00:02:32;;;;;;;8.52;4.80;;;;;;;;;;5020035;28;20080;-68
2022/02/09 00:05:21;;;;;;;12.05;4.80;;;;;;;;;;5021605;28;20286;-68
2022/02/09 00:08:00;;;;;;;7.28;4.47;;;;;;;;;;5004416;28;20049;-67
2022/02/09 00:10:28;;;;;;;6.78;3.80;;;;;;;;;;5021164;28;20053;-67
2022/02/09 00:13:13;;;;;;;8.18;4.72;;;;;;;;;;5017011;28;20163;-67
2022/02/09 00:21:35;;;;;;;8.55;4.55;;;;;;;;;;4980290;28;20091;-68
2022/02/09 00:40:01;;;;;;;9.23;4.25;;;;;;;;;;5021396;28;20684;-68
2022/02/09 00:59:14;;;;;;;7.70;3.55;;;;;;;;;;5022082;28;20494;-68
2022/02/09 01:56:35;;;;;;;8.88;4.93;;;;;;;;;;5042238;28;20585;-68
2022/02/09 01:59:02;;;;;;;7.45;5.47;;;;;;;;;;5037991;28;20049;-68
2022/02/09 02:01:28;;;;;;;8.05;5.18;;;;;;;;;;5027788;28;20052;-68
2022/02/09 02:03:55;;;;;;;8.13;5.53;;;;;;;;;;5013787;28;20092;-68
2022/02/09 02:06:21;;;;;;;8.40;5.68;;;;;;;;;;5024856;28;20045;-69
2022/02/09 02:08:49;;;;;;;8.02;5.50;;;;;;;;;;5018415;28;20056;-68
2022/02/09 02:11:30;;;;;;;9.40;6.03;;;;;;;;;;5024452;28;20581;-69
2022/02/09 02:14:16;;;;;;;10.15;6.00;;;;;;;;;;5025080;28;20053;-69
2022/02/09 02:16:52;;;;;;;9.65;6.15;;;;;;;;;;5004602;28;20419;-69
2022/02/09 02:37:41;;;;;;;9.80;5.93;;;;;;;;;;5018594;28;20494;-69
2022/02/09 02:40:29;;;;;;;6.70;5.07;;;;;;;;;;5023579;28;20064;-68
2022/02/09 02:46:18;;;;;;;8.45;5.32;;;;;;;;;;5012998;28;20041;-68
2022/02/09 02:57:13;;;;;;;8.05;5.38;;;;;;;;;;5016818;28;20057;-68
2022/02/09 03:13:28;;;;;;;8.35;4.95;;;;;;;;;;5012853;28;20053;-70
2022/02/09 03:16:14;;;;;;;7.47;4.97;;;;;;;;;;5026855;28;20378;-69
2022/02/09 03:21:34;;;;;;;11.80;5.60;;;;;;;;;;5024669;28;20054;-69
2022/02/09 03:24:10;;;;;;;6.57;4.78;;;;;;;;;;5012303;28;20117;-68
2022/02/09 03:26:55;;;;;;;7.47;5.07;;;;;;;;;;5018726;28;20057;-68
2022/02/09 03:45:59;;;;;;;8.20;5.93;;;;;;;;;;5022296;28;20049;-68
2022/02/09 03:48:45;;;;;;;8.63;6.38;;;;;;;;;;5021956;28;20053;-68
2022/02/09 03:58:56;;;;;;;9.88;7.47;;;;;;;;;;5036037;28;20049;-68
2022/02/09 04:01:26;;;;;;;8.75;6.82;;;;;;;;;;5025120;28;20061;-69
2022/02/09 04:03:52;;;;;;;11.75;6.55;;;;;;;;;;5016276;28;20061;-68
2022/02/09 04:06:19;;;;;;;11.75;8.00;;;;;;;;;;5018232;28;20061;-68
2022/02/09 04:08:52;;;;;;;10.80;7.20;;;;;;;;;;5012397;28;20053;-68
2022/02/09 04:11:34;;;;;;;8.88;6.93;;;;;;;;;;5022071;28;20056;-68
2022/02/09 04:38:31;;;;;;;13.40;9.52;;;;;;;;;;4992956;28;20057;-68
2022/02/09 04:56:49;;;;;;;11.57;8.88;;;;;;;;;;5013191;28;20442;-68
2022/02/09 04:59:29;;;;;;;13.50;9.80;;;;;;;;;;5022192;28;20057;-68
2022/02/09 05:02:27;;;;;;;14.63;11.13;;;;;;;;;;5008768;28;20053;-68
2022/02/09 05:19:28;;;;;;;14.57;10.63;;;;;;;;;;5009148;28;20557;-68
2022/02/09 05:29:12;;;;;;;12.05;9.18;;;;;;;;;;4993082;28;20492;-68
2022/02/09 05:31:38;;;;;;;13.85;10.50;;;;;;;;;;4994694;28;20072;-68
2022/02/09 05:34:06;;;;;;;16.75;11.32;;;;;;;;;;4999959;28;20074;-68
2022/02/09 05:36:32;;;;;;;15.97;11.20;;;;;;;;;;4993873;28;20509;-68
2022/02/09 05:39:00;;;;;;;16.08;11.43;;;;;;;;;;5002039;28;20104;-68
2022/02/09 05:41:26;;;;;;;20.40;13.57;;;;;;;;;;5000076;28;20517;-68
2022/02/09 05:43:52;;;;;;;17.13;11.18;;;;;;;;;;5016614;28;20053;-68
2022/02/09 05:46:56;;;;;;;17.08;12.38;;;;;;;;;;5008318;28;20101;-68
2022/02/09 05:52:31;;;;;;;15.23;11.52;;;;;;;;;;5020845;28;20072;-68
2022/02/09 05:55:00;;;;;;;16.05;11.70;;;;;;;;;;5028684;28;20044;-68
2022/02/09 05:57:42;;;;;;;15.95;12.30;;;;;;;;;;5033057;28;20479;-68
2022/02/09 06:00:09;;;;;;;16.13;12.45;;;;;;;;;;5020191;28;20060;-68
2022/02/09 06:02:35;;;;;;;15.82;11.77;;;;;;;;;;5041813;28;20524;-68
2022/02/09 06:05:02;;;;;;;13.45;10.20;;;;;;;;;;5025220;28;20053;-68
2022/02/09 06:07:28;;;;;;;16.30;12.20;;;;;;;;;;5021565;28;20053;-68
2022/02/09 06:09:55;;;;;;;15.23;11.77;;;;;;;;;;5013039;28;20400;-68
2022/02/09 06:12:28;;;;;;;15.80;12.45;;;;;;;;;;5017171;28;20061;-68
2022/02/09 06:20:17;;;;;;;14.43;12.52;;;;;;;;;;5013435;28;20521;-68
2022/02/09 06:22:43;;;;;;;15.68;11.48;;;;;;;;;;5019811;28;20049;-68
2022/02/09 06:25:09;;;;;;;15.85;11.35;;;;;;;;;;5017359;28;20080;-68
2022/02/09 06:27:36;;;;;;;15.68;11.60;;;;;;;;;;5009400;28;20049;-68
2022/02/09 06:30:02;;;;;;;13.32;10.20;;;;;;;;;;5020033;28;20045;-68
2022/02/09 06:32:29;;;;;;;14.50;11.80;;;;;;;;;;5012596;28;20348;-68
2022/02/09 06:34:57;;;;;;;15.43;9.88;;;;;;;;;;5020115;28;20524;-68
2022/02/09 06:37:34;;;;;;;12.57;9.75;;;;;;;;;;5013651;28;20049;-67
2022/02/09 06:40:01;;;;;;;12.63;9.68;;;;;;;;;;5016190;28;20050;-68
2022/02/09 06:42:30;;;;;;;12.80;9.77;;;;;;;;;;5015589;28;20058;-68
2022/02/09 06:45:03;;;;;;;10.88;8.75;;;;;;;;;;5015126;28;20057;-68
2022/02/09 06:47:29;;;;;;;12.70;9.02;;;;;;;;;;5025194;28;20054;-68
2022/02/09 06:50:05;;;;;;;12.30;9.27;;;;;;;;;;5018279;28;20107;-68
2022/02/09 06:52:31;;;;;;;11.75;9.18;;;;;;;;;;5042966;28;20044;-68
2022/02/09 06:55:15;;;;;;;15.15;9.52;;;;;;;;;;5025745;28;20737;-68
2022/02/09 07:00:17;;;;;;;12.15;8.73;;;;;;;;;;5016409;28;20715;-68
2022/02/09 07:02:44;;;;;;;12.15;8.43;;;;;;;;;;5023879;28;20054;-68
2022/02/09 07:05:11;;;;;;;10.77;8.55;;;;;;;;;;5024137;28;20149;-68
2022/02/09 07:07:37;;;;;;;11.65;8.50;;;;;;;;;;5012736;28;20169;-68
2022/02/09 07:10:04;;;;;;;13.68;9.50;;;;;;;;;;5017815;28;20057;-68
2022/02/09 07:12:31;;;;;;;11.90;8.23;;;;;;;;;;5015494;28;20065;-68
2022/02/09 07:14:57;;;;;;;12.23;8.50;;;;;;;;;;5021256;28;20053;-68
2022/02/09 07:17:23;;;;;;;11.68;9.13;;;;;;;;;;5016010;28;20050;-68
2022/02/09 07:20:07;;;;;;;11.35;9.10;;;;;;;;;;5022883;28;20506;-68
2022/02/09 07:22:36;;;;;;;12.07;8.15;;;;;;;;;;5018678;28;20419;-68
2022/02/09 07:25:09;;;;;;;11.10;8.43;;;;;;;;;;5014913;28;20513;-68
2022/02/09 07:27:52;;;;;;;10.60;8.45;;;;;;;;;;5023327;28;20045;-68
2022/02/09 07:30:21;;;;;;;12.30;9.05;;;;;;;;;;5016359;28;20049;-68
2022/02/09 07:32:47;;;;;;;12.93;8.05;;;;;;;;;;5021052;28;20045;-68
2022/02/09 07:35:13;;;;;;;12.93;8.10;;;;;;;;;;5008067;28;20045;-68
2022/02/09 07:37:39;;;;;;;11.02;8.20;;;;;;;;;;5023503;28;20053;-69
2022/02/09 07:40:10;;;;;;;13.63;8.30;;;;;;;;;;5024406;28;20489;-68
2022/02/09 07:42:41;;;;;;;14.13;8.93;;;;;;;;;;5019447;28;20060;-68
2022/02/09 07:52:54;;;;;;;12.95;8.68;;;;;;;;;;5015234;28;20402;-68
2022/02/09 07:55:21;;;;;;;12.07;9.13;;;;;;;;;;5022726;28;20053;-68
2022/02/09 07:57:48;;;;;;;13.05;10.10;;;;;;;;;;5010482;28;20120;-68
2022/02/09 08:00:14;;;;;;;12.57;9.05;;;;;;;;;;5013906;28;20053;-68
2022/02/09 08:02:41;;;;;;;14.63;11.55;;;;;;;;;;5037529;28;20250;-68
2022/02/09 08:05:08;;;;;;;12.50;9.52;;;;;;;;;;5026958;28;20049;-68
2022/02/09 08:07:34;;;;;;;13.55;8.88;;;;;;;;;;5004469;28;20045;-68
2022/02/09 08:10:01;;;;;;;12.55;9.43;;;;;;;;;;5016086;28;20045;-69
2022/02/09 08:12:54;;;;;;;15.00;9.95;;;;;;;;;;5022604;28;20436;-68
2022/02/09 08:24:02;;;;;;;13.40;10.27;;;;;;;;;;5035560;28;20076;-68
2022/02/09 08:26:54;;;;;;;12.77;9.32;;;;;;;;;;5033864;28;20052;-68
2022/02/09 08:29:29;;;;;;;13.60;9.50;;;;;;;;;;5032919;28;20049;-69
2022/02/09 08:34:29;;;;;;;13.25;10.63;;;;;;;;;;5022059;28;20057;-69
2022/02/09 08:36:56;;;;;;;12.35;9.07;;;;;;;;;;5021652;28;20064;-69
2022/02/09 08:39:23;;;;;;;14.55;10.98;;;;;;;;;;5013888;28;20558;-68
2022/02/09 08:41:49;;;;;;;15.45;11.48;;;;;;;;;;5021213;28;20057;-69
2022/02/09 08:44:16;;;;;;;17.52;13.02;;;;;;;;;;5006815;28;20075;-68
2022/02/09 08:46:43;;;;;;;17.67;12.02;;;;;;;;;;5020106;28;20060;-69
2022/02/09 08:49:12;;;;;;;17.52;12.25;;;;;;;;;;5018417;28;20052;-69
2022/02/09 08:51:40;;;;;;;15.35;11.88;;;;;;;;;;5029554;28;20471;-68
2022/02/09 08:54:07;;;;;;;18.90;12.68;;;;;;;;;;5021929;28;20148;-69
2022/02/09 08:56:37;;;;;;;18.67;13.45;;;;;;;;;;5008771;28;20720;-68
2022/02/09 08:59:05;;;;;;;17.88;12.10;;;;;;;;;;5019085;28;20060;-69
2022/02/09 09:01:43;;;;;;;19.15;12.45;;;;;;;;;;5013821;28;20057;-69
2022/02/09 09:04:21;;;;;;;18.98;14.20;;;;;;;;;;5021418;28;20053;-68
2022/02/09 09:06:54;;;;;;;18.92;13.30;;;;;;;;;;5013259;28;20053;-69
2022/02/09 09:09:27;;;;;;;17.30;12.27;;;;;;;;;;5019773;28;20064;-68
2022/02/09 09:31:22;;;;;;;14.82;11.50;;;;;;;;;;5013789;28;20057;-68
2022/02/09 09:31:46;;;;;;;17.70;11.68;;;;;;;;;;5017050;28;20060;-68
2022/02/09 09:58:02;;;;;;;17.13;10.57;;;;;;;;;;5012984;28;20525;-69
2022/02/09 10:04:42;;;;;;;13.02;9.68;;;;;;;;;;5012447;28;20497;-68
2022/02/09 10:33:01;;;;;;;15.95;10.02;;;;;;;;;;5012829;28;20103;-68
2022/02/09 10:36:11;;;;;;;14.68;10.88;;;;;;;;;;5020394;28;20136;-68
2022/02/09 10:38:34;;;;;;;14.43;9.52;;;;;;;;;;5017012;28;20064;-68
2022/02/09 10:41:12;;;;;;;13.98;10.20;;;;;;;;;;5024321;28;20407;-68
2022/02/09 10:43:40;;;;;;;16.45;11.50;;;;;;;;;;5029668;28;20064;-68
2022/02/09 10:46:07;;;;;;;14.35;10.27;;;;;;;;;;5044729;28;20055;-68
2022/02/09 10:48:45;;;;;;;14.63;10.25;;;;;;;;;;5028295;28;20068;-68
2022/02/09 10:51:41;;;;;;;13.68;9.73;;;;;;;;;;5022523;28;20457;-68
2022/02/09 10:54:09;;;;;;;15.32;11.05;;;;;;;;;;5038284;28;20048;-68
2022/02/09 10:56:36;;;;;;;13.88;9.63;;;;;;;;;;5035776;28;20524;-68
2022/02/09 10:59:04;;;;;;;16.50;10.45;;;;;;;;;;5032334;28;20049;-68
2022/02/09 11:01:31;;;;;;;14.50;10.13;;;;;;;;;;5011279;28;20054;-68
2022/02/09 11:03:58;;;;;;;13.60;10.30;;;;;;;;;;5019552;28;20061;-68
2022/02/09 11:06:26;;;;;;;13.52;9.90;;;;;;;;;;5017741;28;20057;-68
2022/02/09 11:08:53;;;;;;;13.75;10.57;;;;;;;;;;5022667;28;20479;-68
2022/02/09 11:11:20;;;;;;;14.75;11.30;;;;;;;;;;5024568;28;20060;-68
2022/02/09 11:13:46;;;;;;;15.60;9.95;;;;;;;;;;5017514;28;20052;-68
2022/02/09 11:16:16;;;;;;;13.73;10.27;;;;;;;;;;5017748;28;20603;-68
2022/02/09 11:18:46;;;;;;;18.73;11.10;;;;;;;;;;5013450;28;20398;-68
2022/02/09 11:21:25;;;;;;;15.20;10.30;;;;;;;;;;5024687;28;20481;-68
2022/02/09 11:23:59;;;;;;;13.30;9.63;;;;;;;;;;5016389;28;20055;-68
2022/02/09 11:26:33;;;;;;;15.02;10.38;;;;;;;;;;5025227;28;20591;-68
2022/02/09 11:29:18;;;;;;;15.60;9.30;;;;;;;;;;5013890;28;20061;-68
2022/02/09 11:32:05;;;;;;;12.68;9.02;;;;;;;;;;5020901;28;20049;-69
2022/02/09 11:34:54;;;;;;;14.27;9.90;;;;;;;;;;5024750;28;20599;-68
2022/02/09 11:37:27;;;;;;;11.20;8.23;;;;;;;;;;5044826;28;20076;-68
2022/02/09 11:39:57;;;;;;;14.80;9.75;;;;;;;;;;5026601;28;20048;-68
2022/02/09 11:42:41;;;;;;;13.55;9.18;;;;;;;;;;5032908;28;20052;-68
2022/02/09 11:45:42;;;;;;;10.98;8.50;;;;;;;;;;5038732;28;20057;-68
2022/02/09 11:48:37;;;;;;;12.43;9.55;;;;;;;;;;5016608;28;20053;-69
2022/02/09 11:56:58;;;;;;;11.32;8.75;;;;;;;;;;5000035;28;20054;-69
2022/02/09 12:10:53;;;;;;;13.15;8.13;;;;;;;;;;5012025;28;19932;-69
2022/02/09 12:13:49;;;;;;;13.10;8.73;;;;;;;;;;5019287;28;20073;-69
2022/02/09 12:19:11;;;;;;;10.80;7.15;;;;;;;;;;5023710;28;20501;-68
2022/02/09 12:21:41;;;;;;;9.93;8.15;;;;;;;;;;5017208;28;20064;-69
2022/02/09 12:24:17;;;;;;;10.70;7.60;;;;;;;;;;5026617;28;20064;-69
2022/02/09 12:27:03;;;;;;;14.65;8.40;;;;;;;;;;5012212;28;20053;-69
2022/02/09 12:29:34;;;;;;;12.32;8.23;;;;;;;;;;5023182;28;20095;-69
2022/02/09 12:32:02;;;;;;;11.82;8.40;;;;;;;;;;5022560;28;20088;-68
2022/02/09 12:34:34;;;;;;;12.05;8.45;;;;;;;;;;5019887;28;20473;-68
2022/02/09 12:37:10;;;;;;;12.05;8.85;;;;;;;;;;5022297;28;20088;-69
2022/02/09 12:40:03;;;;;;;13.35;8.25;;;;;;;;;;5011260;28;20056;-69
2022/02/09 12:42:34;;;;;;;10.52;8.05;;;;;;;;;;5020765;28;20056;-69
2022/02/09 12:45:08;;;;;;;15.30;9.18;;;;;;;;;;5016085;28;20084;-69
2022/02/09 12:47:38;;;;;;;16.08;10.00;;;;;;;;;;5023811;28;20557;-68
2022/02/09 12:50:15;;;;;;;14.00;8.90;;;;;;;;;;5013065;28;20682;-68
2022/02/09 12:52:44;;;;;;;14.45;9.30;;;;;;;;;;5017908;28;20045;-68
2022/02/09 12:55:12;;;;;;;12.05;8.82;;;;;;;;;;5011239;28;20054;-69
2022/02/09 12:57:43;;;;;;;12.57;9.63;;;;;;;;;;5000685;28;20046;-68
2022/02/09 13:00:24;;;;;;;13.55;8.65;;;;;;;;;;5014427;28;20080;-69
2022/02/09 13:02:50;;;;;;;12.50;8.10;;;;;;;;;;5015009;28;20064;-69
2022/02/09 13:05:17;;;;;;;12.40;8.50;;;;;;;;;;5022033;28;20059;-70
2022/02/09 13:08:00;;;;;;;13.73;9.00;;;;;;;;;;5010460;28;20527;-69
2022/02/09 13:10:33;;;;;;;10.43;7.80;;;;;;;;;;5018879;28;20053;-69
2022/02/09 13:15:40;;;;;;;9.82;8.27;;;;;;;;;;5021061;28;20053;-70
2022/02/09 13:26:29;;;;;;;12.13;8.85;;;;;;;;;;5007331;28;20058;-68
2022/02/09 13:52:10;;;;;;;15.95;10.07;;;;;;;;;;5025799;28;20057;-70
2022/02/09 14:06:42;;;;;;;13.77;11.30;;;;;;;;;;4984023;28;20686;-68
2022/02/09 14:11:52;;;;;;;16.02;10.35;;;;;;;;;;5016334;28;20415;-68
2022/02/09 14:47:59;;;;;;;14.52;11.10;;;;;;;;;;5024202;28;20185;-69
2022/02/09 14:53:12;;;;;;;16.23;11.02;;;;;;;;;;5043389;28;20045;-68
2022/02/09 14:58:13;;;;;;;16.40;11.88;;;;;;;;;;5021991;28;20594;-68
2022/02/09 15:11:52;;;;;;;13.57;10.68;;;;;;;;;;5019120;28;20041;-68
2022/02/09 15:14:30;;;;;;;16.23;11.63;;;;;;;;;;5014931;28;20053;-68
2022/02/09 15:19:38;;;;;;;19.75;11.85;;;;;;;;;;5015526;28;20087;-68
2022/02/09 15:22:09;;;;;;;17.30;11.05;;;;;;;;;;5018446;28;20058;-68
2022/02/09 15:24:43;;;;;;;15.93;11.20;;;;;;;;;;5012865;28;20061;-68
2022/02/09 15:27:13;;;;;;;15.48;10.85;;;;;;;;;;5023599;28;20060;-68
2022/02/09 15:29:40;;;;;;;16.35;10.82;;;;;;;;;;5017892;28;20053;-68
2022/02/09 15:32:11;;;;;;;18.27;10.07;;;;;;;;;;5020273;28;20061;-68
2022/02/09 15:34:43;;;;;;;18.38;11.32;;;;;;;;;;5020604;28;20054;-68
2022/02/09 15:37:17;;;;;;;17.17;10.43;;;;;;;;;;5008351;28;20049;-68
2022/02/09 15:39:47;;;;;;;13.32;9.00;;;;;;;;;;5022731;28;20059;-68
2022/02/09 16:21:16;;;;;;;13.43;8.95;;;;;;;;;;5018312;28;20418;-68
2022/02/09 16:23:23;;;;;;;13.50;8.60;;;;;;;;;;5019331;28;20060;-68
2022/02/09 16:47:02;;;;;;;14.20;10.43;;;;;;;;;;5009759;28;20049;-68
2022/02/09 16:49:40;;;;;;;15.55;11.35;;;;;;;;;;5009922;28;20046;-68
2022/02/09 16:52:36;;;;;;;17.27;10.45;;;;;;;;;;5024692;28;20049;-68
2022/02/09 17:19:33;;;;;;;24.13;13.85;;;;;;;;;;5013368;28;20053;-68
2022/02/09 17:22:00;;;;;;;20.50;14.02;;;;;;;;;;5013857;28;20133;-68
2022/02/09 17:24:26;;;;;;;19.70;13.77;;;;;;;;;;5013135;28;20058;-68
2022/02/09 17:26:53;;;;;;;23.17;13.68;;;;;;;;;;5010272;28;20136;-68
2022/02/09 17:29:25;;;;;;;21.38;14.25;;;;;;;;;;4996388;28;20053;-67
2022/02/09 17:32:13;;;;;;;22.40;14.63;;;;;;;;;;5012071;28;20056;-68
2022/02/09 17:34:55;;;;;;;22.23;14.43;;;;;;;;;;5013710;28;20580;-68
2022/02/09 17:37:52;;;;;;;20.35;14.07;;;;;;;;;;4999585;28;20045;-68
2022/02/09 17:54:18;;;;;;;20.65;14.40;;;;;;;;;;5003791;28;20345;-69
2022/02/09 17:56:50;;;;;;;23.25;15.73;;;;;;;;;;5021065;28;20099;-69
2022/02/09 17:59:22;;;;;;;23.73;14.80;;;;;;;;;;5013576;28;20068;-69
2022/02/09 18:01:50;;;;;;;24.05;14.63;;;;;;;;;;5020465;28;20418;-69
2022/02/09 18:04:18;;;;;;;27.48;14.98;;;;;;;;;;5011634;28;20057;-68
2022/02/09 18:06:53;;;;;;;22.20;14.98;;;;;;;;;;5014538;28;20597;-69
2022/02/09 18:09:28;;;;;;;21.98;15.23;;;;;;;;;;5021048;28;20052;-69
2022/02/09 18:26:32;;;;;;;26.23;16.58;;;;;;;;;;5020195;28;20053;-69
2022/02/09 18:29:05;;;;;;;35.70;20.40;;;;;;;;;;5011624;28;20045;-69
2022/02/09 18:31:45;;;;;;;29.30;18.00;;;;;;;;;;5014882;28;20065;-69
2022/02/09 18:44:37;;;;;;;22.25;15.43;;;;;;;;;;5015765;28;20042;-69
2022/02/09 19:03:05;;;;;;;29.63;16.65;;;;;;;;;;5015089;28;20059;-69
2022/02/09 19:05:40;;;;;;;24.38;16.45;;;;;;;;;;5025482;28;20422;-69
2022/02/09 19:16:41;;;;;;;28.23;15.65;;;;;;;;;;5014945;28;20054;-69
2022/02/09 19:32:24;;;;;;;24.60;14.02;;;;;;;;;;5022610;28;20057;-69
2022/02/09 19:40:43;;;;;;;26.77;16.17;;;;;;;;;;5023661;28;20548;-69
2022/02/09 19:48:20;;;;;;;26.63;17.42;;;;;;;;;;5012822;28;20545;-69
2022/02/09 19:51:06;;;;;;;27.20;16.88;;;;;;;;;;5019560;28;20708;-69
2022/02/09 19:56:13;;;;;;;22.90;14.35;;;;;;;;;;5023606;28;20045;-69
2022/02/09 19:58:50;;;;;;;18.73;13.02;;;;;;;;;;5014251;28;20056;-69
2022/02/09 20:01:18;;;;;;;21.08;13.13;;;;;;;;;;5006242;28;20049;-69
2022/02/09 20:03:45;;;;;;;23.08;12.65;;;;;;;;;;5017236;28;20053;-69
2022/02/09 20:06:11;;;;;;;25.30;13.55;;;;;;;;;;5013919;28;20465;-68
2022/02/09 20:08:38;;;;;;;22.83;13.90;;;;;;;;;;5005604;28;20344;-69
2022/02/09 20:11:05;;;;;;;23.95;13.65;;;;;;;;;;5014716;28;20578;-69
2022/02/09 20:13:31;;;;;;;22.55;12.93;;;;;;;;;;5022811;28;20045;-69
2022/02/09 20:15:59;;;;;;;23.35;14.23;;;;;;;;;;5007741;28;20072;-69
2022/02/09 20:18:31;;;;;;;26.98;13.98;;;;;;;;;;5018185;28;20049;-69
2022/02/09 20:20:57;;;;;;;21.45;13.63;;;;;;;;;;5021770;28;20056;-69
2022/02/09 20:23:27;;;;;;;27.33;14.20;;;;;;;;;;5007305;28;20096;-69
2022/02/09 20:25:53;;;;;;;24.80;14.63;;;;;;;;;;5007942;28;20076;-69
2022/02/09 20:28:21;;;;;;;25.52;15.82;;;;;;;;;;5014238;28;20057;-69
2022/02/09 20:30:55;;;;;;;24.70;14.05;;;;;;;;;;5016909;28;20489;-69
2022/02/09 20:33:28;;;;;;;25.48;14.43;;;;;;;;;;5010323;28;20050;-68
2022/02/09 20:35:54;;;;;;;25.65;14.13;;;;;;;;;;5021935;28;20049;-69
2022/02/09 20:38:25;;;;;;;23.50;13.80;;;;;;;;;;5014750;28;20045;-69
2022/02/09 20:40:55;;;;;;;22.27;14.30;;;;;;;;;;5021144;28;20088;-69
2022/02/09 20:43:23;;;;;;;23.27;14.43;;;;;;;;;;5018929;28;20045;-69
2022/02/09 20:45:52;;;;;;;26.05;14.10;;;;;;;;;;5007740;28;20060;-69
2022/02/09 20:48:24;;;;;;;25.15;14.82;;;;;;;;;;5021742;28;20053;-69
2022/02/09 20:50:51;;;;;;;22.13;14.38;;;;;;;;;;5014016;28;20049;-69
2022/02/09 20:53:19;;;;;;;24.30;14.07;;;;;;;;;;5022327;28;20079;-69
2022/02/09 20:55:46;;;;;;;24.60;14.15;;;;;;;;;;5004836;28;20084;-68
2022/02/09 20:58:12;;;;;;;24.42;13.90;;;;;;;;;;5018698;28;20553;-68
2022/02/09 21:00:45;;;;;;;26.08;15.50;;;;;;;;;;5017805;28;20054;-68
2022/02/09 21:05:54;;;;;;;31.38;17.35;;;;;;;;;;5010854;28;20408;-68
2022/02/09 21:14:03;;;;;;;29.13;17.77;;;;;;;;;;5008532;28;20071;-68
2022/02/09 21:19:30;;;;;;;32.53;19.73;;;;;;;;;;5008018;28;20056;-68
2022/02/09 21:22:34;;;;;;;31.33;18.83;;;;;;;;;;5019275;28;20058;-68
2022/02/09 21:25:17;;;;;;;;;;;;;;;;;;5015254;28;20083;-68
2022/02/09 21:55:13;;;;;;;36.42;22.05;;;;;;;;;;4998885;28;20045;-68
2022/02/09 21:57:53;;;;;;;;;;;;;;;;;;5019663;28;20499;-68
2022/02/09 22:22:03;;;;;;;35.35;22.42;;;;;;;;;;5021998;28;20072;-68
2022/02/09 22:27:26;;;;;;;38.67;22.38;;;;;;;;;;5005516;28;20213;-68
2022/02/09 22:49:49;;;;;;;33.67;21.92;;;;;;;;;;4978371;28;21218;-68
2022/02/09 22:54:48;;;;;;;32.08;21.23;;;;;;;;;;5004206;28;20053;-68
2022/02/09 22:57:15;;;;;;;33.40;21.02;;;;;;;;;;5015951;28;20053;-68
2022/02/09 22:59:51;;;;;;;33.85;20.60;;;;;;;;;;5024172;28;20045;-68
2022/02/09 23:02:26;;;;;;;35.58;22.25;;;;;;;;;;5017819;28;20049;-68
2022/02/09 23:05:29;;;;;;;34.35;21.55;;;;;;;;;;5014912;28;20056;-68
2022/02/09 23:07:54;;;;;;;33.60;20.63;;;;;;;;;;5022274;28;20422;-68
2022/02/09 23:10:32;;;;;;;34.45;21.05;;;;;;;;;;5015720;28;20060;-68
2022/02/09 23:13:11;;;;;;;37.03;20.98;;;;;;;;;;5012065;28;20062;-68
2022/02/09 23:15:46;;;;;;;33.22;22.08;;;;;;;;;;4993288;28;20057;-67
2022/02/09 23:18:44;;;;;;;35.10;21.50;;;;;;;;;;5013062;28;20510;-68
2022/02/09 23:26:32;;;;;;;32.72;21.10;;;;;;;;;;5016265;28;20429;-68
